Terminal Aerodrome Forecast
Issued by NWS Melbourne, FL

Home | Current Version | Previous Version | Text Only | Print | Product List | Glossary On
Versions: 1 2 3 4 5 6 7 8 9 10 11 12 13 14 15 16 17 18 19 20 21 22 23 24 25 26 27 28 29
932
FTUS42 KMLB 212332
TAFMCO
TAF
KMCO 212332Z 2200/2224 23003KT P6SM SCT100 BKN200
     FM221400 21004KT P6SM SCT025
     FM221800 21006KT P6SM VCTS SCT035CB BKN100=

USA.gov is the U.S. government's official web portal to all federal, state and local government web resources and services.